sensor_id;sensor_type;location;lat;lon;timestamp;P1;durP1;ratioP1;P2;durP2;ratioP2
68866;SDS011;56451;44.804;20.476;2024-03-07T00:01:20;38.57;;;19.67;;
68866;SDS011;56451;44.804;20.476;2024-03-07T00:03:48;41.67;;;23.58;;
68866;SDS011;56451;44.804;20.476;2024-03-07T00:06:14;42.70;;;21.83;;
68866;SDS011;56451;44.804;20.476;2024-03-07T00:08:40;33.85;;;19.52;;
68866;SDS011;56451;44.804;20.476;2024-03-07T00:11:06;35.83;;;19.33;;
68866;SDS011;56451;44.804;20.476;2024-03-07T00:13:32;34.13;;;18.80;;
68866;SDS011;56451;44.804;20.476;2024-03-07T00:15:59;36.33;;;19.38;;
68866;SDS011;56451;44.804;20.476;2024-03-07T00:18:25;35.15;;;19.15;;
68866;SDS011;56451;44.804;20.476;2024-03-07T00:21:12;38.50;;;18.95;;
68866;SDS011;56451;44.804;20.476;2024-03-07T00:23:38;35.58;;;19.60;;
68866;SDS011;56451;44.804;20.476;2024-03-07T00:26:06;35.43;;;19.97;;
68866;SDS011;56451;44.804;20.476;2024-03-07T00:28:39;37.92;;;20.25;;
68866;SDS011;56451;44.804;20.476;2024-03-07T00:31:29;35.08;;;19.02;;
68866;SDS011;56451;44.804;20.476;2024-03-07T00:34:15;33.58;;;17.67;;
68866;SDS011;56451;44.804;20.476;2024-03-07T00:36:44;35.15;;;18.67;;
68866;SDS011;56451;44.804;20.476;2024-03-07T00:39:12;42.63;;;20.50;;
68866;SDS011;56451;44.804;20.476;2024-03-07T00:41:58;42.45;;;19.85;;
68866;SDS011;56451;44.804;20.476;2024-03-07T00:44:44;38.65;;;19.75;;
68866;SDS011;56451;44.804;20.476;2024-03-07T00:47:30;40.80;;;23.42;;
68866;SDS011;56451;44.804;20.476;2024-03-07T00:49:57;30.30;;;18.70;;
68866;SDS011;56451;44.804;20.476;2024-03-07T00:52:44;36.03;;;18.20;;
68866;SDS011;56451;44.804;20.476;2024-03-07T00:55:31;32.58;;;17.63;;
68866;SDS011;56451;44.804;20.476;2024-03-07T00:58:18;32.38;;;19.05;;
68866;SDS011;56451;44.804;20.476;2024-03-07T01:01:04;37.83;;;18.85;;
68866;SDS011;56451;44.804;20.476;2024-03-07T01:03:51;33.08;;;19.05;;
68866;SDS011;56451;44.804;20.476;2024-03-07T01:06:37;31.13;;;17.53;;
68866;SDS011;56451;44.804;20.476;2024-03-07T01:09:03;36.45;;;18.98;;
68866;SDS011;56451;44.804;20.476;2024-03-07T01:11:30;35.50;;;18.15;;
68866;SDS011;56451;44.804;20.476;2024-03-07T01:14:16;39.53;;;22.38;;
68866;SDS011;56451;44.804;20.476;2024-03-07T01:17:02;35.72;;;19.67;;
68866;SDS011;56451;44.804;20.476;2024-03-07T01:19:48;32.73;;;17.37;;
68866;SDS011;56451;44.804;20.476;2024-03-07T01:22:35;32.75;;;18.15;;
68866;SDS011;56451;44.804;20.476;2024-03-07T01:25:21;34.17;;;18.75;;
68866;SDS011;56451;44.804;20.476;2024-03-07T01:28:07;36.10;;;18.58;;
68866;SDS011;56451;44.804;20.476;2024-03-07T01:30:53;45.58;;;20.80;;
68866;SDS011;56451;44.804;20.476;2024-03-07T01:33:39;39.07;;;19.27;;
68866;SDS011;56451;44.804;20.476;2024-03-07T01:36:26;38.30;;;18.70;;
68866;SDS011;56451;44.804;20.476;2024-03-07T01:38:52;31.70;;;17.25;;
68866;SDS011;56451;44.804;20.476;2024-03-07T01:41:18;33.92;;;18.45;;
68866;SDS011;56451;44.804;20.476;2024-03-07T01:44:05;35.85;;;18.63;;
68866;SDS011;56451;44.804;20.476;2024-03-07T01:46:51;34.30;;;18.23;;
68866;SDS011;56451;44.804;20.476;2024-03-07T01:49:17;35.28;;;17.92;;
68866;SDS011;56451;44.804;20.476;2024-03-07T01:51:44;38.58;;;18.15;;
68866;SDS011;56451;44.804;20.476;2024-03-07T01:54:10;37.17;;;18.92;;
68866;SDS011;56451;44.804;20.476;2024-03-07T01:56:37;37.95;;;19.05;;
68866;SDS011;56451;44.804;20.476;2024-03-07T01:59:05;50.00;;;29.23;;
68866;SDS011;56451;44.804;20.476;2024-03-07T02:01:33;35.03;;;20.50;;
68866;SDS011;56451;44.804;20.476;2024-03-07T02:04:02;34.22;;;18.13;;
68866;SDS011;56451;44.804;20.476;2024-03-07T02:06:28;34.95;;;19.02;;
68866;SDS011;56451;44.804;20.476;2024-03-07T02:08:54;35.47;;;19.15;;
68866;SDS011;56451;44.804;20.476;2024-03-07T02:11:20;37.93;;;19.33;;
68866;SDS011;56451;44.804;20.476;2024-03-07T02:13:46;34.42;;;18.80;;
68866;SDS011;56451;44.804;20.476;2024-03-07T02:16:12;37.88;;;20.65;;
68866;SDS011;56451;44.804;20.476;2024-03-07T02:18:59;39.15;;;20.00;;
68866;SDS011;56451;44.804;20.476;2024-03-07T02:21:47;31.90;;;17.52;;
68866;SDS011;56451;44.804;20.476;2024-03-07T02:24:33;34.67;;;18.03;;
68866;SDS011;56451;44.804;20.476;2024-03-07T02:27:19;35.13;;;18.90;;
68866;SDS011;56451;44.804;20.476;2024-03-07T02:29:45;40.55;;;18.50;;
68866;SDS011;56451;44.804;20.476;2024-03-07T02:32:31;48.67;;;27.42;;
68866;SDS011;56451;44.804;20.476;2024-03-07T02:35:17;38.33;;;22.80;;
68866;SDS011;56451;44.804;20.476;2024-03-07T02:37:44;32.45;;;18.48;;
68866;SDS011;56451;44.804;20.476;2024-03-07T02:40:20;31.23;;;17.80;;
68866;SDS011;56451;44.804;20.476;2024-03-07T02:42:47;31.90;;;18.55;;
68866;SDS011;56451;44.804;20.476;2024-03-07T02:45:13;36.67;;;18.73;;
68866;SDS011;56451;44.804;20.476;2024-03-07T02:47:40;35.97;;;17.95;;
68866;SDS011;56451;44.804;20.476;2024-03-07T02:50:26;32.15;;;16.98;;
68866;SDS011;56451;44.804;20.476;2024-03-07T02:53:15;34.33;;;17.17;;
68866;SDS011;56451;44.804;20.476;2024-03-07T02:56:01;31.50;;;17.58;;
68866;SDS011;56451;44.804;20.476;2024-03-07T02:58:47;32.05;;;17.38;;
68866;SDS011;56451;44.804;20.476;2024-03-07T03:01:33;33.83;;;18.20;;
68866;SDS011;56451;44.804;20.476;2024-03-07T03:04:19;40.75;;;19.48;;
68866;SDS011;56451;44.804;20.476;2024-03-07T03:06:45;40.00;;;19.30;;
68866;SDS011;56451;44.804;20.476;2024-03-07T03:09:31;36.47;;;18.10;;
68866;SDS011;56451;44.804;20.476;2024-03-07T03:12:18;38.15;;;19.35;;
68866;SDS011;56451;44.804;20.476;2024-03-07T03:15:10;34.40;;;18.00;;
68866;SDS011;56451;44.804;20.476;2024-03-07T03:17:56;33.33;;;17.95;;
68866;SDS011;56451;44.804;20.476;2024-03-07T03:20:43;47.35;;;21.08;;
68866;SDS011;56451;44.804;20.476;2024-03-07T03:23:29;45.92;;;26.15;;
68866;SDS011;56451;44.804;20.476;2024-03-07T03:26:15;34.55;;;19.67;;
68866;SDS011;56451;44.804;20.476;2024-03-07T03:29:02;35.23;;;17.77;;
68866;SDS011;56451;44.804;20.476;2024-03-07T03:31:48;30.65;;;16.13;;
68866;SDS011;56451;44.804;20.476;2024-03-07T03:34:35;29.85;;;16.38;;
68866;SDS011;56451;44.804;20.476;2024-03-07T03:37:01;30.42;;;15.85;;
68866;SDS011;56451;44.804;20.476;2024-03-07T03:39:27;30.60;;;16.52;;
68866;SDS011;56451;44.804;20.476;2024-03-07T03:41:54;31.30;;;15.73;;
68866;SDS011;56451;44.804;20.476;2024-03-07T03:44:40;30.55;;;16.95;;
68866;SDS011;56451;44.804;20.476;2024-03-07T03:47:28;38.45;;;17.95;;
68866;SDS011;56451;44.804;20.476;2024-03-07T03:50:15;29.95;;;15.77;;
68866;SDS011;56451;44.804;20.476;2024-03-07T03:53:01;32.75;;;17.10;;
68866;SDS011;56451;44.804;20.476;2024-03-07T03:55:47;33.73;;;17.17;;
68866;SDS011;56451;44.804;20.476;2024-03-07T03:58:15;30.08;;;16.73;;
68866;SDS011;56451;44.804;20.476;2024-03-07T04:01:01;33.65;;;18.38;;
68866;SDS011;56451;44.804;20.476;2024-03-07T04:03:27;27.55;;;16.30;;
68866;SDS011;56451;44.804;20.476;2024-03-07T04:05:53;31.23;;;17.33;;
68866;SDS011;56451;44.804;20.476;2024-03-07T04:08:22;30.67;;;16.43;;
68866;SDS011;56451;44.804;20.476;2024-03-07T04:11:08;30.35;;;15.55;;
68866;SDS011;56451;44.804;20.476;2024-03-07T04:13:54;26.50;;;14.70;;
68866;SDS011;56451;44.804;20.476;2024-03-07T04:16:40;40.10;;;16.67;;
68866;SDS011;56451;44.804;20.476;2024-03-07T04:19:06;32.15;;;17.10;;
68866;SDS011;56451;44.804;20.476;2024-03-07T04:21:37;33.20;;;16.40;;
68866;SDS011;56451;44.804;20.476;2024-03-07T04:24:05;27.02;;;15.63;;
68866;SDS011;56451;44.804;20.476;2024-03-07T04:26:31;31.05;;;15.70;;
68866;SDS011;56451;44.804;20.476;2024-03-07T04:28:57;26.98;;;15.15;;
68866;SDS011;56451;44.804;20.476;2024-03-07T04:31:23;29.43;;;15.23;;
68866;SDS011;56451;44.804;20.476;2024-03-07T04:33:50;32.92;;;17.00;;
68866;SDS011;56451;44.804;20.476;2024-03-07T04:36:36;28.35;;;15.13;;
68866;SDS011;56451;44.804;20.476;2024-03-07T04:39:03;32.65;;;15.90;;
68866;SDS011;56451;44.804;20.476;2024-03-07T04:41:30;33.00;;;14.50;;
68866;SDS011;56451;44.804;20.476;2024-03-07T04:43:56;34.88;;;17.33;;
68866;SDS011;56451;44.804;20.476;2024-03-07T04:46:25;26.60;;;14.13;;
68866;SDS011;56451;44.804;20.476;2024-03-07T04:48:51;36.10;;;16.35;;
68866;SDS011;56451;44.804;20.476;2024-03-07T04:51:17;37.92;;;17.95;;
68866;SDS011;56451;44.804;20.476;2024-03-07T04:53:43;28.65;;;17.63;;
68866;SDS011;56451;44.804;20.476;2024-03-07T04:56:09;21.53;;;14.10;;
68866;SDS011;56451;44.804;20.476;2024-03-07T04:58:55;23.13;;;12.90;;
68866;SDS011;56451;44.804;20.476;2024-03-07T05:01:41;21.10;;;11.75;;
68866;SDS011;56451;44.804;20.476;2024-03-07T05:04:27;20.58;;;11.10;;
68866;SDS011;56451;44.804;20.476;2024-03-07T05:07:01;16.40;;;9.97;;
68866;SDS011;56451;44.804;20.476;2024-03-07T05:09:47;21.15;;;11.80;;
68866;SDS011;56451;44.804;20.476;2024-03-07T05:12:33;18.60;;;10.45;;
68866;SDS011;56451;44.804;20.476;2024-03-07T05:15:19;20.08;;;10.57;;
68866;SDS011;56451;44.804;20.476;2024-03-07T05:18:05;19.10;;;9.52;;
68866;SDS011;56451;44.804;20.476;2024-03-07T05:20:53;17.37;;;9.43;;
68866;SDS011;56451;44.804;20.476;2024-03-07T05:23:38;17.58;;;9.30;;
68866;SDS011;56451;44.804;20.476;2024-03-07T05:26:26;16.05;;;8.57;;
68866;SDS011;56451;44.804;20.476;2024-03-07T05:29:12;14.27;;;8.25;;
68866;SDS011;56451;44.804;20.476;2024-03-07T05:32:17;16.00;;;8.07;;
68866;SDS011;56451;44.804;20.476;2024-03-07T05:35:13;13.10;;;7.17;;
68866;SDS011;56451;44.804;20.476;2024-03-07T05:37:40;24.83;;;10.63;;
68866;SDS011;56451;44.804;20.476;2024-03-07T05:40:30;15.30;;;9.18;;
68866;SDS011;56451;44.804;20.476;2024-03-07T05:43:16;11.55;;;7.47;;
68866;SDS011;56451;44.804;20.476;2024-03-07T05:46:02;10.30;;;5.40;;
68866;SDS011;56451;44.804;20.476;2024-03-07T05:48:48;8.83;;;5.23;;
68866;SDS011;56451;44.804;20.476;2024-03-07T05:51:34;10.13;;;5.32;;
68866;SDS011;56451;44.804;20.476;2024-03-07T05:54:21;13.32;;;5.82;;
68866;SDS011;56451;44.804;20.476;2024-03-07T05:57:07;9.25;;;5.20;;
68866;SDS011;56451;44.804;20.476;2024-03-07T05:59:55;7.35;;;5.20;;
68866;SDS011;56451;44.804;20.476;2024-03-07T06:02:41;9.10;;;5.57;;
68866;SDS011;56451;44.804;20.476;2024-03-07T06:05:27;6.65;;;4.57;;
68866;SDS011;56451;44.804;20.476;2024-03-07T06:08:17;7.65;;;4.88;;
68866;SDS011;56451;44.804;20.476;2024-03-07T06:10:44;6.47;;;4.35;;
68866;SDS011;56451;44.804;20.476;2024-03-07T06:13:11;9.80;;;4.82;;
68866;SDS011;56451;44.804;20.476;2024-03-07T06:15:57;7.33;;;4.20;;
68866;SDS011;56451;44.804;20.476;2024-03-07T06:18:24;7.40;;;4.72;;
68866;SDS011;56451;44.804;20.476;2024-03-07T06:20:50;7.55;;;4.28;;
68866;SDS011;56451;44.804;20.476;2024-03-07T06:23:16;6.40;;;3.70;;
68866;SDS011;56451;44.804;20.476;2024-03-07T06:25:42;6.75;;;4.55;;
68866;SDS011;56451;44.804;20.476;2024-03-07T06:28:31;7.27;;;3.97;;
68866;SDS011;56451;44.804;20.476;2024-03-07T06:31:17;6.45;;;3.80;;
68866;SDS011;56451;44.804;20.476;2024-03-07T06:34:03;5.07;;;3.25;;
68866;SDS011;56451;44.804;20.476;2024-03-07T06:36:53;6.47;;;3.95;;
68866;SDS011;56451;44.804;20.476;2024-03-07T06:39:21;6.43;;;3.72;;
68866;SDS011;56451;44.804;20.476;2024-03-07T06:41:48;6.43;;;4.07;;
68866;SDS011;56451;44.804;20.476;2024-03-07T06:44:15;8.85;;;4.00;;
68866;SDS011;56451;44.804;20.476;2024-03-07T06:47:01;7.07;;;4.18;;
68866;SDS011;56451;44.804;20.476;2024-03-07T06:49:28;8.35;;;4.63;;
68866;SDS011;56451;44.804;20.476;2024-03-07T06:52:14;7.68;;;3.90;;
68866;SDS011;56451;44.804;20.476;2024-03-07T06:54:41;5.97;;;3.80;;
68866;SDS011;56451;44.804;20.476;2024-03-07T06:57:07;9.55;;;4.43;;
68866;SDS011;56451;44.804;20.476;2024-03-07T06:59:34;8.40;;;4.38;;
68866;SDS011;56451;44.804;20.476;2024-03-07T07:02:20;8.30;;;4.53;;
68866;SDS011;56451;44.804;20.476;2024-03-07T07:04:46;9.23;;;4.30;;
68866;SDS011;56451;44.804;20.476;2024-03-07T07:07:13;8.27;;;4.80;;
68866;SDS011;56451;44.804;20.476;2024-03-07T07:09:40;9.18;;;3.88;;
68866;SDS011;56451;44.804;20.476;2024-03-07T07:12:27;11.13;;;4.90;;
68866;SDS011;56451;44.804;20.476;2024-03-07T07:15:15;16.05;;;10.23;;
68866;SDS011;56451;44.804;20.476;2024-03-07T07:18:03;8.23;;;6.63;;
68866;SDS011;56451;44.804;20.476;2024-03-07T07:20:29;7.23;;;5.03;;
68866;SDS011;56451;44.804;20.476;2024-03-07T07:23:16;8.68;;;4.63;;
68866;SDS011;56451;44.804;20.476;2024-03-07T07:25:42;6.20;;;4.20;;
68866;SDS011;56451;44.804;20.476;2024-03-07T07:28:15;7.38;;;4.10;;
68866;SDS011;56451;44.804;20.476;2024-03-07T07:30:42;8.43;;;4.72;;
68866;SDS011;56451;44.804;20.476;2024-03-07T07:33:28;8.93;;;4.67;;
68866;SDS011;56451;44.804;20.476;2024-03-07T07:35:58;9.07;;;4.30;;
68866;SDS011;56451;44.804;20.476;2024-03-07T07:38:25;8.63;;;4.70;;
68866;SDS011;56451;44.804;20.476;2024-03-07T07:40:51;8.25;;;4.57;;
68866;SDS011;56451;44.804;20.476;2024-03-07T07:43:18;6.97;;;3.80;;
68866;SDS011;56451;44.804;20.476;2024-03-07T07:45:44;5.20;;;3.50;;
68866;SDS011;56451;44.804;20.476;2024-03-07T07:48:10;6.28;;;3.70;;
68866;SDS011;56451;44.804;20.476;2024-03-07T07:50:37;8.02;;;3.90;;
68866;SDS011;56451;44.804;20.476;2024-03-07T07:53:03;6.75;;;3.70;;
68866;SDS011;56451;44.804;20.476;2024-03-07T07:55:35;8.07;;;4.18;;
68866;SDS011;56451;44.804;20.476;2024-03-07T07:58:01;7.47;;;4.00;;
68866;SDS011;56451;44.804;20.476;2024-03-07T08:00:29;9.52;;;6.38;;
68866;SDS011;56451;44.804;20.476;2024-03-07T08:03:16;8.77;;;5.30;;
68866;SDS011;56451;44.804;20.476;2024-03-07T08:05:43;6.15;;;4.18;;
68866;SDS011;56451;44.804;20.476;2024-03-07T08:08:20;6.97;;;4.38;;
68866;SDS011;56451;44.804;20.476;2024-03-07T08:10:56;6.03;;;3.80;;
68866;SDS011;56451;44.804;20.476;2024-03-07T08:14:05;5.53;;;3.45;;
68866;SDS011;56451;44.804;20.476;2024-03-07T08:16:32;4.80;;;3.47;;
68866;SDS011;56451;44.804;20.476;2024-03-07T08:19:18;5.85;;;3.20;;
68866;SDS011;56451;44.804;20.476;2024-03-07T08:22:05;5.57;;;3.33;;
68866;SDS011;56451;44.804;20.476;2024-03-07T08:24:51;10.37;;;4.67;;
68866;SDS011;56451;44.804;20.476;2024-03-07T08:27:38;9.43;;;4.18;;
68866;SDS011;56451;44.804;20.476;2024-03-07T08:30:24;8.90;;;4.38;;
68866;SDS011;56451;44.804;20.476;2024-03-07T08:33:11;8.77;;;4.47;;
68866;SDS011;56451;44.804;20.476;2024-03-07T08:35:40;8.63;;;4.88;;
68866;SDS011;56451;44.804;20.476;2024-03-07T08:38:07;6.33;;;3.97;;
68866;SDS011;56451;44.804;20.476;2024-03-07T08:40:53;6.18;;;4.65;;
68866;SDS011;56451;44.804;20.476;2024-03-07T08:43:19;9.63;;;4.90;;
68866;SDS011;56451;44.804;20.476;2024-03-07T08:46:07;5.95;;;4.00;;
68866;SDS011;56451;44.804;20.476;2024-03-07T08:48:53;6.93;;;4.35;;
68866;SDS011;56451;44.804;20.476;2024-03-07T08:51:19;11.60;;;5.50;;
68866;SDS011;56451;44.804;20.476;2024-03-07T08:53:45;7.93;;;4.85;;
68866;SDS011;56451;44.804;20.476;2024-03-07T08:56:31;8.70;;;5.10;;
68866;SDS011;56451;44.804;20.476;2024-03-07T08:59:17;9.70;;;5.95;;
68866;SDS011;56451;44.804;20.476;2024-03-07T09:02:03;9.63;;;5.95;;
68866;SDS011;56451;44.804;20.476;2024-03-07T09:04:49;7.88;;;5.70;;
68866;SDS011;56451;44.804;20.476;2024-03-07T09:07:36;10.93;;;5.43;;
68866;SDS011;56451;44.804;20.476;2024-03-07T09:10:02;8.70;;;5.75;;
68866;SDS011;56451;44.804;20.476;2024-03-07T09:12:49;11.45;;;6.18;;
68866;SDS011;56451;44.804;20.476;2024-03-07T09:15:36;11.68;;;6.28;;
68866;SDS011;56451;44.804;20.476;2024-03-07T09:18:03;10.43;;;5.95;;
68866;SDS011;56451;44.804;20.476;2024-03-07T09:20:52;9.25;;;5.80;;
68866;SDS011;56451;44.804;20.476;2024-03-07T09:23:38;12.02;;;5.97;;
68866;SDS011;56451;44.804;20.476;2024-03-07T09:26:05;8.95;;;5.72;;
68866;SDS011;56451;44.804;20.476;2024-03-07T09:28:32;9.82;;;6.72;;
68866;SDS011;56451;44.804;20.476;2024-03-07T09:31:18;11.80;;;7.70;;
68866;SDS011;56451;44.804;20.476;2024-03-07T09:34:06;9.18;;;6.20;;
68866;SDS011;56451;44.804;20.476;2024-03-07T09:36:34;10.05;;;5.95;;
68866;SDS011;56451;44.804;20.476;2024-03-07T09:39:02;10.88;;;6.40;;
68866;SDS011;56451;44.804;20.476;2024-03-07T09:41:48;10.40;;;6.68;;
68866;SDS011;56451;44.804;20.476;2024-03-07T09:44:36;13.85;;;7.20;;
68866;SDS011;56451;44.804;20.476;2024-03-07T09:47:05;12.05;;;7.15;;
68866;SDS011;56451;44.804;20.476;2024-03-07T09:49:53;14.13;;;7.88;;
68866;SDS011;56451;44.804;20.476;2024-03-07T09:52:19;16.50;;;7.85;;
68866;SDS011;56451;44.804;20.476;2024-03-07T09:54:46;9.82;;;6.47;;
68866;SDS011;56451;44.804;20.476;2024-03-07T09:57:12;8.65;;;5.97;;
68866;SDS011;56451;44.804;20.476;2024-03-07T09:59:39;10.57;;;6.32;;
68866;SDS011;56451;44.804;20.476;2024-03-07T10:02:09;12.30;;;7.07;;
68866;SDS011;56451;44.804;20.476;2024-03-07T10:04:51;11.85;;;7.82;;
68866;SDS011;56451;44.804;20.476;2024-03-07T10:07:30;11.00;;;6.28;;
68866;SDS011;56451;44.804;20.476;2024-03-07T10:10:17;9.75;;;6.30;;
68866;SDS011;56451;44.804;20.476;2024-03-07T10:12:56;14.60;;;7.28;;
68866;SDS011;56451;44.804;20.476;2024-03-07T10:15:32;12.38;;;7.07;;
68866;SDS011;56451;44.804;20.476;2024-03-07T10:18:21;10.05;;;6.38;;
68866;SDS011;56451;44.804;20.476;2024-03-07T10:21:10;11.90;;;7.30;;
68866;SDS011;56451;44.804;20.476;2024-03-07T10:23:38;14.13;;;8.13;;
68866;SDS011;56451;44.804;20.476;2024-03-07T10:26:06;13.05;;;7.30;;
68866;SDS011;56451;44.804;20.476;2024-03-07T10:28:53;11.98;;;7.15;;
68866;SDS011;56451;44.804;20.476;2024-03-07T10:31:39;13.13;;;7.60;;
68866;SDS011;56451;44.804;20.476;2024-03-07T10:34:31;10.10;;;6.57;;
68866;SDS011;56451;44.804;20.476;2024-03-07T10:37:00;11.30;;;6.88;;
68866;SDS011;56451;44.804;20.476;2024-03-07T10:39:46;12.57;;;7.47;;
68866;SDS011;56451;44.804;20.476;2024-03-07T10:42:34;13.70;;;7.30;;
68866;SDS011;56451;44.804;20.476;2024-03-07T10:45:22;14.63;;;8.30;;
68866;SDS011;56451;44.804;20.476;2024-03-07T10:47:52;13.63;;;7.90;;
68866;SDS011;56451;44.804;20.476;2024-03-07T10:53:32;11.57;;;7.00;;
68866;SDS011;56451;44.804;20.476;2024-03-07T10:59:19;14.52;;;7.72;;
68866;SDS011;56451;44.804;20.476;2024-03-07T11:04:58;16.48;;;7.43;;
68866;SDS011;56451;44.804;20.476;2024-03-07T11:07:25;14.68;;;7.55;;
68866;SDS011;56451;44.804;20.476;2024-03-07T11:10:12;12.23;;;6.85;;
68866;SDS011;56451;44.804;20.476;2024-03-07T11:12:44;12.13;;;7.30;;
68866;SDS011;56451;44.804;20.476;2024-03-07T11:15:33;12.13;;;6.72;;
68866;SDS011;56451;44.804;20.476;2024-03-07T11:18:20;15.20;;;7.55;;
68866;SDS011;56451;44.804;20.476;2024-03-07T11:21:06;16.25;;;8.50;;
68866;SDS011;56451;44.804;20.476;2024-03-07T11:23:52;16.90;;;8.07;;
68866;SDS011;56451;44.804;20.476;2024-03-07T11:26:38;19.98;;;8.82;;
68866;SDS011;56451;44.804;20.476;2024-03-07T11:32:28;13.25;;;8.25;;
68866;SDS011;56451;44.804;20.476;2024-03-07T11:35:15;22.33;;;9.25;;
68866;SDS011;56451;44.804;20.476;2024-03-07T11:37:43;20.33;;;9.27;;
68866;SDS011;56451;44.804;20.476;2024-03-07T11:42:51;17.58;;;8.20;;
68866;SDS011;56451;44.804;20.476;2024-03-07T11:45:19;15.10;;;8.25;;
68866;SDS011;56451;44.804;20.476;2024-03-07T11:50:41;14.90;;;8.38;;
68866;SDS011;56451;44.804;20.476;2024-03-07T11:53:27;15.20;;;8.43;;
68866;SDS011;56451;44.804;20.476;2024-03-07T11:56:13;12.85;;;8.98;;
68866;SDS011;56451;44.804;20.476;2024-03-07T11:59:00;13.05;;;7.82;;
68866;SDS011;56451;44.804;20.476;2024-03-07T12:01:48;11.43;;;7.07;;
68866;SDS011;56451;44.804;20.476;2024-03-07T12:04:17;10.85;;;7.22;;
68866;SDS011;56451;44.804;20.476;2024-03-07T12:07:03;10.57;;;6.80;;
68866;SDS011;56451;44.804;20.476;2024-03-07T12:09:37;10.38;;;6.63;;
68866;SDS011;56451;44.804;20.476;2024-03-07T12:12:05;10.52;;;7.68;;
68866;SDS011;56451;44.804;20.476;2024-03-07T12:14:34;11.80;;;6.95;;
68866;SDS011;56451;44.804;20.476;2024-03-07T12:17:01;10.98;;;7.63;;
68866;SDS011;56451;44.804;20.476;2024-03-07T12:19:48;10.88;;;6.88;;
68866;SDS011;56451;44.804;20.476;2024-03-07T12:22:19;10.57;;;7.15;;
68866;SDS011;56451;44.804;20.476;2024-03-07T12:25:08;12.43;;;7.53;;
68866;SDS011;56451;44.804;20.476;2024-03-07T12:28:02;14.60;;;9.25;;
68866;SDS011;56451;44.804;20.476;2024-03-07T12:31:04;16.33;;;9.45;;
68866;SDS011;56451;44.804;20.476;2024-03-07T12:33:52;17.25;;;9.90;;
68866;SDS011;56451;44.804;20.476;2024-03-07T12:36:22;13.82;;;9.80;;
68866;SDS011;56451;44.804;20.476;2024-03-07T12:38:53;16.60;;;9.18;;
68866;SDS011;56451;44.804;20.476;2024-03-07T12:41:39;16.35;;;8.88;;
68866;SDS011;56451;44.804;20.476;2024-03-07T12:44:25;14.35;;;8.80;;
68866;SDS011;56451;44.804;20.476;2024-03-07T12:47:12;13.40;;;8.20;;
68866;SDS011;56451;44.804;20.476;2024-03-07T12:50:04;12.40;;;7.60;;
68866;SDS011;56451;44.804;20.476;2024-03-07T12:52:50;21.48;;;8.80;;
68866;SDS011;56451;44.804;20.476;2024-03-07T12:55:18;15.95;;;9.15;;
68866;SDS011;56451;44.804;20.476;2024-03-07T12:58:04;15.85;;;8.85;;
68866;SDS011;56451;44.804;20.476;2024-03-07T13:00:51;17.38;;;9.02;;
68866;SDS011;56451;44.804;20.476;2024-03-07T13:04:00;18.95;;;9.15;;
68866;SDS011;56451;44.804;20.476;2024-03-07T13:06:46;15.80;;;8.10;;
68866;SDS011;56451;44.804;20.476;2024-03-07T13:09:13;19.85;;;8.82;;
68866;SDS011;56451;44.804;20.476;2024-03-07T13:11:40;18.88;;;9.13;;
68866;SDS011;56451;44.804;20.476;2024-03-07T13:14:21;15.48;;;7.63;;
68866;SDS011;56451;44.804;20.476;2024-03-07T13:17:09;16.48;;;9.30;;
68866;SDS011;56451;44.804;20.476;2024-03-07T13:19:56;13.73;;;7.53;;
68866;SDS011;56451;44.804;20.476;2024-03-07T13:22:43;13.38;;;7.63;;
68866;SDS011;56451;44.804;20.476;2024-03-07T13:25:22;17.40;;;8.68;;
68866;SDS011;56451;44.804;20.476;2024-03-07T13:30:43;12.93;;;7.60;;
68866;SDS011;56451;44.804;20.476;2024-03-07T13:33:14;16.98;;;8.65;;
68866;SDS011;56451;44.804;20.476;2024-03-07T13:35:41;15.27;;;8.52;;
68866;SDS011;56451;44.804;20.476;2024-03-07T13:38:07;11.82;;;7.70;;
68866;SDS011;56451;44.804;20.476;2024-03-07T13:40:35;12.05;;;8.15;;
68866;SDS011;56451;44.804;20.476;2024-03-07T13:43:24;16.08;;;8.68;;
68866;SDS011;56451;44.804;20.476;2024-03-07T13:45:51;14.45;;;8.77;;
68866;SDS011;56451;44.804;20.476;2024-03-07T13:48:17;16.50;;;9.13;;
68866;SDS011;56451;44.804;20.476;2024-03-07T13:50:45;16.25;;;8.85;;
68866;SDS011;56451;44.804;20.476;2024-03-07T13:53:31;12.27;;;7.90;;
68866;SDS011;56451;44.804;20.476;2024-03-07T13:59:15;24.35;;;9.52;;
68866;SDS011;56451;44.804;20.476;2024-03-07T14:05:24;20.67;;;8.77;;
68866;SDS011;56451;44.804;20.476;2024-03-07T14:08:21;30.90;;;9.90;;
68866;SDS011;56451;44.804;20.476;2024-03-07T14:27:10;16.25;;;7.90;;
68866;SDS011;56451;44.804;20.476;2024-03-07T14:33:09;27.05;;;9.38;;
68866;SDS011;56451;44.804;20.476;2024-03-07T14:39:08;18.50;;;11.23;;
68866;SDS011;56451;44.804;20.476;2024-03-07T14:41:44;15.63;;;8.73;;
68866;SDS011;56451;44.804;20.476;2024-03-07T14:44:17;12.82;;;7.35;;
68866;SDS011;56451;44.804;20.476;2024-03-07T14:47:06;11.82;;;8.35;;
68866;SDS011;56451;44.804;20.476;2024-03-07T14:49:53;17.00;;;7.93;;
68866;SDS011;56451;44.804;20.476;2024-03-07T14:52:41;35.95;;;9.82;;
68866;SDS011;56451;44.804;20.476;2024-03-07T14:55:31;14.20;;;8.32;;
68866;SDS011;56451;44.804;20.476;2024-03-07T14:58:21;16.20;;;7.47;;
68866;SDS011;56451;44.804;20.476;2024-03-07T15:00:48;12.75;;;7.97;;
68866;SDS011;56451;44.804;20.476;2024-03-07T15:03:35;16.35;;;8.80;;
68866;SDS011;56451;44.804;20.476;2024-03-07T15:06:21;16.30;;;8.70;;
68866;SDS011;56451;44.804;20.476;2024-03-07T15:08:48;15.48;;;9.18;;
68866;SDS011;56451;44.804;20.476;2024-03-07T15:11:35;14.80;;;8.43;;
68866;SDS011;56451;44.804;20.476;2024-03-07T15:14:08;15.85;;;8.75;;
68866;SDS011;56451;44.804;20.476;2024-03-07T15:16:55;13.32;;;7.97;;
68866;SDS011;56451;44.804;20.476;2024-03-07T15:19:21;39.05;;;10.07;;
68866;SDS011;56451;44.804;20.476;2024-03-07T15:21:48;31.38;;;8.43;;
68866;SDS011;56451;44.804;20.476;2024-03-07T15:24:35;21.00;;;8.90;;
68866;SDS011;56451;44.804;20.476;2024-03-07T15:27:22;26.45;;;10.05;;
68866;SDS011;56451;44.804;20.476;2024-03-07T15:30:08;20.58;;;9.15;;
68866;SDS011;56451;44.804;20.476;2024-03-07T15:32:55;14.77;;;8.65;;
68866;SDS011;56451;44.804;20.476;2024-03-07T15:35:42;19.15;;;8.95;;
68866;SDS011;56451;44.804;20.476;2024-03-07T15:38:28;19.23;;;10.40;;
68866;SDS011;56451;44.804;20.476;2024-03-07T15:41:01;17.08;;;9.38;;
68866;SDS011;56451;44.804;20.476;2024-03-07T15:43:28;14.88;;;8.75;;
68866;SDS011;56451;44.804;20.476;2024-03-07T15:46:14;23.73;;;9.52;;
68866;SDS011;56451;44.804;20.476;2024-03-07T15:49:02;18.65;;;8.55;;
68866;SDS011;56451;44.804;20.476;2024-03-07T15:51:48;22.85;;;8.93;;
68866;SDS011;56451;44.804;20.476;2024-03-07T15:54:35;14.45;;;8.10;;
68866;SDS011;56451;44.804;20.476;2024-03-07T15:57:21;16.52;;;8.75;;
68866;SDS011;56451;44.804;20.476;2024-03-07T16:00:09;18.85;;;9.82;;
68866;SDS011;56451;44.804;20.476;2024-03-07T16:03:05;16.77;;;8.15;;
68866;SDS011;56451;44.804;20.476;2024-03-07T16:05:39;21.50;;;9.10;;
68866;SDS011;56451;44.804;20.476;2024-03-07T16:08:08;14.68;;;9.43;;
68866;SDS011;56451;44.804;20.476;2024-03-07T16:10:39;16.42;;;9.80;;
68866;SDS011;56451;44.804;20.476;2024-03-07T16:13:11;12.48;;;8.38;;
68866;SDS011;56451;44.804;20.476;2024-03-07T16:15:41;16.10;;;9.73;;